Time;durP1;ratioP1;P1;durP2;ratioP2;P2;SDS_P1;SDS_P2;PMS_P1;PMS_P2;Temp;Humidity;BMP_temperature;BMP_pressure;BME280_temperature;BME280_humidity;BME280_pressure;Samples;Min_cycle;Max_cycle;Signal;HPM_P1;HPM_P2
2022/09/26 00:09:59;;;;;;;;;;;;;;;;;;;;;
2022/09/26 00:19:29;;;;;;;43.80;41.35;;;;;;;10.76;100.00;100878.38;4852923;29;20504;-82
2022/09/26 01:06:09;;;;;;;43.17;40.47;;;;;;;10.85;100.00;100831.16;4804330;29;20062;-83
2022/09/26 01:09:35;;;;;;;;;;;;;;;;;;;;;
2022/09/26 01:16:16;;;;;;;;;;;;;;;;;;;;;
2022/09/26 01:19:50;;;;;;;;;;;;;;;;;;;;;
2022/09/26 01:32:58;;;;;;;49.78;46.58;;;;;;;10.55;100.00;100826.25;4678699;30;20118;-82
2022/09/26 01:36:17;;;;;;;43.97;41.08;;;;;;;10.56;100.00;100841.19;4698128;30;20053;-82
2022/09/26 01:45:59;;;;;;;44.35;41.55;;;;;;;11.04;100.00;100825.00;4726933;30;20422;-82
2022/09/26 01:59:08;;;;;;;47.95;45.20;;;;;;;10.85;100.00;100824.00;4688388;30;20053;-81
2022/09/26 02:01:39;;;;;;;47.00;44.20;;;;;;;10.94;100.00;100819.31;4980115;23;20085;-83
2022/09/26 02:04:20;;;;;;;43.28;40.78;;;;;;;10.83;100.00;100820.72;4985826;28;20558;-82
2022/09/26 02:06:56;;;;;;;48.30;45.50;;;;;;;10.77;100.00;100811.75;4985120;28;20058;-82
2022/09/26 02:09:36;;;;;;;48.55;45.65;;;;;;;10.76;100.00;100819.91;4990056;28;20069;-82
2022/09/26 02:12:14;;;;;;;49.25;46.05;;;;;;;10.60;100.00;100805.22;4989223;28;20050;-81
2022/09/26 02:14:43;;;;;;;45.30;42.53;;;;;;;10.65;100.00;100810.75;4986070;28;20046;-81
2022/09/26 02:17:14;;;;;;;46.80;43.75;;;;;;;10.71;100.00;100801.09;4989054;28;20120;-82
2022/09/26 02:19:46;;;;;;;46.80;44.03;;;;;;;10.81;100.00;100798.06;4990177;28;20380;-82
2022/09/26 02:22:16;;;;;;;44.60;41.83;;;;;;;10.86;100.00;100801.75;4990488;28;20518;-86
2022/09/26 02:24:56;;;;;;;46.20;43.50;;;;;;;10.43;100.00;100804.78;4983597;28;20054;-81
2022/09/26 02:27:37;;;;;;;47.20;44.30;;;;;;;10.41;100.00;100795.38;4988132;28;20077;-82
2022/09/26 02:30:54;;;;;;;54.22;51.13;;;;;;;10.19;100.00;100806.13;4993971;28;20047;-83
2022/09/26 02:33:38;;;;;;;48.70;45.60;;;;;;;10.08;100.00;100820.00;5001570;28;20061;-82
2022/09/26 02:36:09;;;;;;;53.65;49.92;;;;;;;9.53;100.00;100813.84;4990370;28;20473;-81
2022/09/26 02:38:37;;;;;;;52.45;48.67;;;;;;;9.73;100.00;100801.50;4999798;28;20170;-82
2022/09/26 02:41:30;;;;;;;58.85;55.05;;;;;;;10.18;100.00;100799.19;4991148;28;20571;-83
2022/09/26 02:44:27;;;;;;;49.03;46.03;;;;;;;10.04;100.00;100803.66;5001018;28;20046;-81
2022/09/26 02:47:26;;;;;;;53.38;49.90;;;;;;;9.90;100.00;100806.47;4992867;28;20046;-81
2022/09/26 02:50:14;;;;;;;56.65;53.00;;;;;;;9.89;100.00;100804.81;4988393;28;20113;-82
2022/09/26 02:52:50;;;;;;;51.92;48.53;;;;;;;9.97;100.00;100810.78;4982980;28;20061;-82
2022/09/26 02:55:26;;;;;;;47.08;43.78;;;;;;;10.23;100.00;100809.22;4983105;28;20050;-83
2022/09/26 02:58:14;;;;;;;46.90;43.50;;;;;;;9.94;100.00;100813.84;4983963;28;20042;-81
2022/09/26 03:01:01;;;;;;;46.15;42.85;;;;;;;10.03;100.00;100812.63;4989041;28;20088;-82
2022/09/26 03:03:37;;;;;;;45.70;42.60;;;;;;;10.00;100.00;100814.88;4986254;28;20054;-83
2022/09/26 03:06:32;;;;;;;46.90;43.17;;;;;;;10.01;100.00;100817.31;4988367;28;20054;-82
2022/09/26 03:09:13;;;;;;;44.70;41.58;;;;;;;10.00;100.00;100804.25;4989498;28;20058;-82
2022/09/26 03:11:46;;;;;;;46.45;43.22;;;;;;;10.05;100.00;100805.31;4988322;28;20063;-82
2022/09/26 03:14:17;;;;;;;47.40;44.20;;;;;;;9.87;100.00;100815.66;4986242;28;20047;-83
2022/09/26 03:16:53;;;;;;;44.90;41.67;;;;;;;9.76;100.00;100805.59;4986647;28;20050;-82
2022/09/26 03:19:29;;;;;;;54.05;50.28;;;;;;;9.61;100.00;100801.25;4988339;28;20145;-84
2022/09/26 03:22:10;;;;;;;48.38;45.08;;;;;;;9.63;100.00;100809.03;4986241;28;20503;-84
2022/09/26 03:24:52;;;;;;;46.65;43.30;;;;;;;9.44;100.00;100796.47;4986429;28;20481;-82
2022/09/26 03:27:38;;;;;;;49.15;45.53;;;;;;;9.24;100.00;100797.19;4985585;28;20054;-82
2022/09/26 03:30:37;;;;;;;46.45;43.03;;;;;;;9.39;100.00;100800.53;4988496;28;20482;-82
2022/09/26 03:33:05;;;;;;;44.65;41.55;;;;;;;9.13;100.00;100793.25;4985370;28;20056;-80
2022/09/26 03:35:33;;;;;;;45.38;41.97;;;;;;;9.49;100.00;100800.19;4991629;28;20058;-82
2022/09/26 03:38:01;;;;;;;44.15;40.92;;;;;;;9.64;100.00;100798.22;4992679;28;20050;-83
2022/09/26 03:40:28;;;;;;;63.70;58.25;;;;;;;9.60;100.00;100796.16;4988163;28;20050;-82
2022/09/26 03:42:55;;;;;;;61.65;56.25;;;;;;;9.36;100.00;100800.13;4981796;28;20042;-82
2022/09/26 03:45:21;;;;;;;44.95;41.83;;;;;;;9.29;100.00;100800.09;4985588;28;20061;-82
2022/09/26 03:47:54;;;;;;;43.38;39.88;;;;;;;9.46;100.00;100805.06;4987252;28;20058;-83
2022/09/26 03:50:23;;;;;;;40.20;36.78;;;;;;;9.57;100.00;100807.97;4987001;28;20051;-82
2022/09/26 03:52:51;;;;;;;43.53;40.63;;;;;;;9.61;100.00;100801.25;4983812;28;20050;-82
2022/09/26 03:55:19;;;;;;;42.50;39.60;;;;;;;9.51;100.00;100787.56;4992739;28;20077;-82
2022/09/26 03:57:46;;;;;;;44.33;41.03;;;;;;;9.53;100.00;100792.66;4991619;28;20058;-83
2022/09/26 04:00:14;;;;;;;42.42;39.30;;;;;;;9.28;100.00;100792.31;4978758;28;20049;-83
2022/09/26 04:02:40;;;;;;;41.75;38.55;;;;;;;9.30;100.00;100791.13;4990226;28;20062;-83
2022/09/26 04:05:08;;;;;;;38.13;35.25;;;;;;;8.94;100.00;100775.41;4986764;28;20050;-83
2022/09/26 04:07:36;;;;;;;39.92;36.75;;;;;;;8.85;100.00;100780.03;4988003;28;20109;-82
2022/09/26 04:10:03;;;;;;;40.13;36.88;;;;;;;8.97;100.00;100785.59;4990657;28;20061;-83
2022/09/26 04:12:31;;;;;;;41.67;38.20;;;;;;;8.99;100.00;100788.91;4975662;28;20054;-82
2022/09/26 04:14:58;;;;;;;40.60;37.40;;;;;;;9.11;100.00;100795.28;4985100;28;20046;-82
2022/09/26 04:17:24;;;;;;;40.75;37.63;;;;;;;9.18;100.00;100795.31;4983434;28;20053;-83
2022/09/26 04:19:51;;;;;;;40.42;37.35;;;;;;;8.93;100.00;100787.84;4990655;28;20104;-83
2022/09/26 04:22:19;;;;;;;40.60;37.33;;;;;;;8.80;100.00;100790.38;4988006;28;20447;-83
2022/09/26 04:24:48;;;;;;;42.63;39.28;;;;;;;9.10;100.00;100792.81;4983100;28;20055;-83
2022/09/26 04:27:15;;;;;;;43.40;39.78;;;;;;;9.32;100.00;100788.25;4987903;28;20062;-82
2022/09/26 04:29:43;;;;;;;41.80;38.63;;;;;;;9.47;100.00;100786.31;4985967;28;20412;-83
2022/09/26 04:32:11;;;;;;;43.30;39.90;;;;;;;9.50;100.00;100777.13;4985227;28;20064;-83
2022/09/26 04:34:39;;;;;;;43.72;40.08;;;;;;;9.63;100.00;100772.72;4982735;28;20142;-82
2022/09/26 04:37:07;;;;;;;145.90;81.18;;;;;;;9.81;100.00;100761.56;4976734;28;20054;-83
2022/09/26 04:39:36;;;;;;;79.93;57.53;;;;;;;9.81;100.00;100766.88;4985676;28;20062;-82
2022/09/26 04:42:06;;;;;;;101.47;63.08;;;;;;;9.99;100.00;100771.59;4988676;28;20042;-84
2022/09/26 04:44:35;;;;;;;60.00;50.50;;;;;;;10.16;100.00;100768.56;4993862;28;20497;-84
2022/09/26 04:47:07;;;;;;;76.47;55.80;;;;;;;10.42;100.00;100773.13;4969686;28;20042;-85
2022/09/26 04:49:34;;;;;;;;;;;;;;;10.53;100.00;100768.03;5013717;28;20376;-85
2022/09/26 04:52:01;;;;;;;61.13;47.72;;;;;;;10.38;100.00;100763.91;4997064;28;19929;-84
2022/09/26 04:54:29;;;;;;;55.42;49.35;;;;;;;10.53;100.00;100775.19;5005424;28;20057;-84
2022/09/26 04:57:04;;;;;;;48.72;44.00;;;;;;;10.82;100.00;100775.78;4994176;28;20049;-85
2022/09/26 04:59:33;;;;;;;44.75;41.20;;;;;;;10.99;100.00;100769.84;5000866;28;20080;-85
2022/09/26 05:02:02;;;;;;;40.25;37.25;;;;;;;11.10;100.00;100781.66;4995224;28;20061;-82
2022/09/26 05:04:32;;;;;;;39.95;36.95;;;;;;;11.19;100.00;100777.75;5001255;28;20096;-83
2022/09/26 05:06:59;;;;;;;40.35;37.55;;;;;;;11.31;100.00;100782.44;5004566;28;20081;-82
2022/09/26 05:09:26;;;;;;;40.50;37.50;;;;;;;11.60;100.00;100781.13;4994989;28;20098;-82
2022/09/26 05:11:53;;;;;;;39.33;36.40;;;;;;;11.48;100.00;100778.28;5005224;28;20108;-82
2022/09/26 05:14:20;;;;;;;41.50;38.50;;;;;;;11.70;100.00;100778.81;4996792;28;20046;-82
2022/09/26 05:16:48;;;;;;;38.72;35.90;;;;;;;11.94;100.00;100792.44;4988015;28;20054;-82
2022/09/26 05:19:20;;;;;;;38.97;36.00;;;;;;;12.29;100.00;100791.00;4999569;28;20046;-86
2022/09/26 05:21:46;;;;;;;40.35;37.40;;;;;;;13.18;100.00;100783.69;4984539;28;20054;-79
2022/09/26 05:26:58;;;;;;;37.90;35.28;;;;;;;12.61;100.00;100775.78;4992614;28;20162;-79
2022/09/26 05:29:24;;;;;;;39.25;36.75;;;;;;;12.49;100.00;100777.53;4995581;28;20127;-80
2022/09/26 05:31:53;;;;;;;40.28;37.25;;;;;;;12.62;100.00;100779.31;4995776;28;20467;-80
2022/09/26 05:34:20;;;;;;;39.00;35.75;;;;;;;12.60;100.00;100768.03;4997809;28;20475;-80
2022/09/26 05:36:47;;;;;;;39.33;36.75;;;;;;;12.44;100.00;100768.59;5001955;28;20583;-80
2022/09/26 05:41:59;;;;;;;42.05;39.45;;;;;;;12.94;100.00;100753.38;4997603;28;20046;-79
2022/09/26 05:44:27;;;;;;;41.20;38.63;;;;;;;13.04;100.00;100767.03;5002196;28;20442;-81
2022/09/26 05:46:56;;;;;;;42.22;38.97;;;;;;;13.07;100.00;100757.75;5002019;28;20427;-79
2022/09/26 05:49:24;;;;;;;45.42;41.75;;;;;;;13.03;100.00;100757.38;5007536;28;20065;-79
2022/09/26 05:51:52;;;;;;;45.10;42.05;;;;;;;12.76;100.00;100756.00;5010310;28;20058;-79
2022/09/26 05:54:22;;;;;;;46.35;42.67;;;;;;;13.35;100.00;100743.94;5011129;28;20073;-80
2022/09/26 05:56:49;;;;;;;44.83;41.20;;;;;;;13.23;100.00;100754.50;5005207;28;20065;-80
2022/09/26 05:59:17;;;;;;;43.22;40.60;;;;;;;13.31;100.00;100744.59;5006649;28;20073;-79
2022/09/26 06:01:45;;;;;;;40.35;37.22;;;;;;;13.91;100.00;100756.13;5000779;28;20108;-80
2022/09/26 06:04:15;;;;;;;41.53;38.75;;;;;;;14.11;100.00;100761.19;4995686;28;20066;-80
2022/09/26 06:06:43;;;;;;;42.55;39.50;;;;;;;13.98;100.00;100762.22;4994811;28;20054;-81
2022/09/26 06:09:09;;;;;;;38.80;36.35;;;;;;;14.45;100.00;100761.50;4994330;28;20053;-79
2022/09/26 06:11:36;;;;;;;39.67;36.67;;;;;;;14.63;100.00;100763.31;4998837;28;20046;-79
2022/09/26 06:14:03;;;;;;;40.58;37.83;;;;;;;14.89;100.00;100756.69;5002723;28;20053;-79
2022/09/26 06:16:30;;;;;;;41.17;37.83;;;;;;;15.11;100.00;100756.91;5003691;28;20047;-80
2022/09/26 06:18:57;;;;;;;38.17;35.67;;;;;;;15.35;100.00;100760.34;4996818;28;20064;-78
2022/09/26 06:21:26;;;;;;;35.95;33.60;;;;;;;15.37;100.00;100766.28;5001600;28;20068;-79
2022/09/26 06:24:06;;;;;;;37.63;35.42;;;;;;;15.43;100.00;100753.78;4997659;28;20045;-81
2022/09/26 06:26:33;;;;;;;36.70;34.30;;;;;;;15.74;100.00;100757.94;4996590;28;20061;-79
2022/09/26 06:29:00;;;;;;;38.00;35.70;;;;;;;15.85;100.00;100764.28;5002172;28;20046;-79
2022/09/26 06:31:28;;;;;;;41.35;38.80;;;;;;;16.09;100.00;100767.66;5003610;28;20479;-79
2022/09/26 06:33:55;;;;;;;40.85;38.55;;;;;;;16.38;100.00;100768.44;4995769;28;20112;-78
2022/09/26 06:36:23;;;;;;;39.28;37.15;;;;;;;16.47;100.00;100767.78;5006769;28;20051;-79
2022/09/26 06:38:53;;;;;;;43.28;41.03;;;;;;;16.78;100.00;100762.91;4996191;28;20054;-79
2022/09/26 06:41:20;;;;;;;43.78;41.28;;;;;;;16.88;100.00;100751.50;5001777;28;20403;-79
2022/09/26 06:43:47;;;;;;;43.33;41.03;;;;;;;17.10;100.00;100751.56;4996060;28;20081;-79
2022/09/26 06:46:15;;;;;;;40.40;38.20;;;;;;;17.15;100.00;100738.19;4999017;28;20050;-79
2022/09/26 06:48:42;;;;;;;42.13;39.85;;;;;;;17.65;100.00;100742.56;5008299;28;20149;-79
2022/09/26 06:51:12;;;;;;;43.25;40.88;;;;;;;18.07;100.00;100737.38;4995119;28;20061;-79
2022/09/26 06:53:39;;;;;;;43.42;40.53;;;;;;;17.92;100.00;100739.91;4996401;28;20057;-79
2022/09/26 06:56:07;;;;;;;39.08;36.60;;;;;;;17.96;100.00;100740.22;4992792;28;20047;-78
2022/09/26 06:58:34;;;;;;;39.35;36.90;;;;;;;17.96;100.00;100754.47;4999063;28;20061;-79
2022/09/26 07:01:01;;;;;;;36.55;33.88;;;;;;;17.99;100.00;100756.63;4998971;28;20046;-80
2022/09/26 07:03:28;;;;;;;38.00;35.60;;;;;;;18.39;100.00;100755.38;5001674;28;20050;-81
2022/09/26 07:05:56;;;;;;;43.45;40.45;;;;;;;18.62;100.00;100756.09;5000013;28;20057;-80
2022/09/26 07:08:24;;;;;;;40.30;37.70;;;;;;;19.11;100.00;100754.00;5003995;28;20051;-78
2022/09/26 07:11:03;;;;;;;44.15;41.65;;;;;;;18.68;100.00;100755.84;4992649;28;20042;-84
2022/09/26 07:13:34;;;;;;;40.80;38.40;;;;;;;19.64;100.00;100760.16;4993593;28;20482;-81
2022/09/26 07:16:01;;;;;;;39.03;36.47;;;;;;;19.67;100.00;100764.22;4991015;28;20046;-82
2022/09/26 07:18:28;;;;;;;39.58;37.47;;;;;;;19.79;100.00;100770.19;4999434;28;20120;-80
2022/09/26 07:20:55;;;;;;;38.88;36.47;;;;;;;19.65;100.00;100759.06;5000450;28;20129;-80
2022/09/26 07:23:22;;;;;;;38.08;35.92;;;;;;;19.83;100.00;100755.09;4998327;28;20062;-80
2022/09/26 07:25:50;;;;;;;40.10;37.65;;;;;;;20.25;100.00;100745.97;4991968;28;20124;-79
2022/09/26 07:28:18;;;;;;;43.33;41.03;;;;;;;20.21;100.00;100747.59;4992042;28;20056;-80
2022/09/26 07:30:49;;;;;;;43.17;40.83;;;;;;;20.29;100.00;100744.34;4999116;28;20066;-79
2022/09/26 07:33:15;;;;;;;41.95;39.60;;;;;;;19.78;100.00;100744.28;4995159;28;20062;-79
2022/09/26 07:35:43;;;;;;;44.38;42.08;;;;;;;20.01;100.00;100729.50;4996837;28;20475;-79
2022/09/26 07:38:11;;;;;;;42.40;40.20;;;;;;;20.12;100.00;100735.69;4997242;28;20498;-79
2022/09/26 07:40:39;;;;;;;39.58;37.38;;;;;;;20.42;100.00;100726.00;4990800;28;20047;-80
2022/09/26 07:43:06;;;;;;;40.40;38.05;;;;;;;20.19;100.00;100727.38;5000528;28;20544;-81
2022/09/26 07:51:04;;;;;;;35.60;33.58;;;;;;;21.49;82.52;100713.03;4993936;28;20072;-80
2022/09/26 07:53:31;;;;;;;34.78;32.55;;;;;;;21.57;93.09;100717.03;4992325;28;20116;-80
2022/09/26 07:56:09;;;;;;;34.33;32.33;;;;;;;21.66;97.84;100715.34;4994965;28;20046;-81
2022/09/26 07:58:38;;;;;;;35.85;33.22;;;;;;;21.98;93.11;100714.06;4994093;28;20498;-79
2022/09/26 08:01:31;;;;;;;37.45;35.10;;;;;;;22.61;83.39;100718.69;4989980;28;20122;-81
2022/09/26 08:04:06;;;;;;;36.50;34.33;;;;;;;22.86;81.76;100720.31;4983184;28;20125;-80
2022/09/26 08:06:35;;;;;;;39.38;36.83;;;;;;;22.13;73.54;100713.94;4994449;28;20104;-78
2022/09/26 08:09:02;;;;;;;39.53;37.05;;;;;;;22.54;74.06;100708.22;4992659;28;20069;-78
2022/09/26 08:11:29;;;;;;;39.47;37.08;;;;;;;21.19;68.26;100707.75;4998866;28;20474;-78
2022/09/26 08:13:58;;;;;;;39.17;37.08;;;;;;;22.49;74.00;100708.25;5001573;28;20041;-78
2022/09/26 08:16:24;;;;;;;39.28;36.88;;;;;;;23.01;60.17;100693.09;4999450;28;20050;-78
2022/09/26 08:18:52;;;;;;;38.17;35.80;;;;;;;22.84;61.07;100687.28;4996757;28;20050;-79
2022/09/26 08:21:22;;;;;;;41.75;38.63;;;;;;;22.27;60.29;100688.97;4988565;28;20050;-79
2022/09/26 08:23:49;;;;;;;41.72;39.42;;;;;;;22.99;54.41;100681.72;4993950;28;20113;-79
2022/09/26 08:26:20;;;;;;;39.35;37.15;;;;;;;21.92;59.96;100683.56;5000051;28;20053;-79
2022/09/26 08:28:47;;;;;;;38.97;36.67;;;;;;;23.44;60.59;100686.84;5001155;28;20057;-78
2022/09/26 08:31:15;;;;;;;38.35;36.25;;;;;;;23.01;54.63;100684.94;4996825;28;20050;-78
2022/09/26 08:33:43;;;;;;;40.65;38.10;;;;;;;23.69;53.47;100681.09;5004098;28;20071;-79
2022/09/26 08:36:12;;;;;;;45.60;43.10;;;;;;;24.19;51.62;100678.63;4993315;28;20429;-78
2022/09/26 08:38:40;;;;;;;45.70;43.30;;;;;;;23.69;52.85;100681.09;4993790;28;20046;-78
2022/09/26 08:41:24;;;;;;;45.38;42.80;;;;;;;22.98;54.54;100677.41;4997814;28;20133;-79
2022/09/26 08:44:04;;;;;;;44.72;42.15;;;;;;;23.45;55.70;100683.00;4997033;28;20058;-79
2022/09/26 08:46:49;;;;;;;42.08;39.65;;;;;;;23.19;58.84;100679.88;4998336;28;20079;-80
2022/09/26 08:49:34;;;;;;;42.97;40.20;;;;;;;23.23;59.94;100668.13;4996722;28;20163;-80
2022/09/26 08:52:06;;;;;;;45.85;43.55;;;;;;;23.76;51.74;100672.56;4996249;28;20064;-81
2022/09/26 08:54:39;;;;;;;75.00;66.30;;;;;;;23.31;58.05;100662.06;4994633;28;20458;-79
2022/09/26 08:57:15;;;;;;;40.55;38.03;;;;;;;22.60;64.67;100660.22;5004531;28;20062;-80
2022/09/26 08:59:45;;;;;;;39.85;37.42;;;;;;;22.53;68.79;100655.16;4996830;28;20054;-81
2022/09/26 09:02:22;;;;;;;41.55;39.25;;;;;;;22.20;64.83;100646.03;4997824;28;20058;-79
2022/09/26 09:04:56;;;;;;;39.88;37.33;;;;;;;22.66;70.45;100642.03;4997691;28;20054;-80
2022/09/26 09:07:25;;;;;;;40.05;37.65;;;;;;;22.27;73.39;100638.41;5001530;28;20061;-79
2022/09/26 09:09:56;;;;;;;39.42;37.13;;;;;;;23.11;69.45;100620.91;4994702;28;20085;-81
2022/09/26 09:12:33;;;;;;;41.10;38.70;;;;;;;23.25;64.13;100619.91;5000834;28;20046;-82
2022/09/26 09:15:17;;;;;;;41.13;38.42;;;;;;;22.53;67.79;100619.97;4996482;28;20109;-81
2022/09/26 09:17:52;;;;;;;42.30;39.90;;;;;;;23.09;67.19;100610.38;4999513;28;20062;-82
2022/09/26 09:20:29;;;;;;;48.30;45.80;;;;;;;23.33;61.64;100615.75;5007872;28;20054;-82
2022/09/26 09:23:22;;;;;;;46.75;43.95;;;;;;;23.14;70.49;100610.28;4999472;28;20062;-82
2022/09/26 09:26:03;;;;;;;39.35;36.95;;;;;;;23.46;64.58;100604.13;4994036;28;20130;-82
2022/09/26 09:28:41;;;;;;;38.58;36.13;;;;;;;23.32;66.14;100597.84;4994644;28;20111;-82
2022/09/26 09:31:12;;;;;;;37.22;34.90;;;;;;;23.41;58.55;100603.41;4995314;28;20057;-82
2022/09/26 09:33:44;;;;;;;40.53;38.13;;;;;;;23.69;68.33;100596.19;5003333;28;20049;-82
2022/09/26 09:36:17;;;;;;;43.03;40.35;;;;;;;23.17;61.93;100598.88;5005472;28;20077;-86
2022/09/26 09:38:51;;;;;;;44.88;42.55;;;;;;;22.87;57.64;100597.34;4986874;28;20114;-86
2022/09/26 09:41:32;;;;;;;47.13;44.28;;;;;;;23.35;55.11;100601.88;4995469;28;20463;-87
2022/09/26 09:44:05;;;;;;;44.75;42.10;;;;;;;23.31;57.10;100594.34;4988122;28;20056;-89
2022/09/26 09:46:51;;;;;;;44.33;41.72;;;;;;;23.36;55.08;100598.88;4991575;28;20510;-89
2022/09/26 09:49:27;;;;;;;45.53;42.92;;;;;;;23.12;56.04;100598.97;5000214;28;20038;-89
2022/09/26 09:52:06;;;;;;;55.15;50.80;;;;;;;23.00;58.93;100595.88;5005288;28;20057;-89
2022/09/26 09:54:48;;;;;;;49.78;45.63;;;;;;;22.52;58.14;100610.25;4994334;28;20045;-89
2022/09/26 09:57:38;;;;;;;45.93;42.60;;;;;;;22.41;61.54;100609.53;4986104;28;20059;-89
2022/09/26 10:00:18;;;;;;;42.90;40.60;;;;;;;22.43;77.01;100614.69;4993998;28;20316;-88
2022/09/26 10:02:59;;;;;;;45.17;42.78;;;;;;;22.90;76.43;100606.81;4994854;28;20066;-88
2022/09/26 10:05:41;;;;;;;45.40;42.80;;;;;;;22.67;64.72;100597.63;4996964;28;20055;-88
2022/09/26 10:08:56;;;;;;;;;;;;;;;;;;;;;
2022/09/26 10:18:16;;;;;;;50.97;48.47;;;;;;;23.28;64.02;100573.25;4943182;29;20318;-86
2022/09/26 10:21:16;;;;;;;51.00;48.40;;;;;;;23.66;62.83;100573.19;4992421;28;20042;-88
2022/09/26 10:23:47;;;;;;;49.20;46.10;;;;;;;23.08;64.42;100579.75;4986657;28;20054;-89
2022/09/26 10:26:36;;;;;;;47.13;44.53;;;;;;;23.37;64.88;100580.72;4999950;28;20039;-88
2022/09/26 10:32:41;;;;;;;;;;;;;;;;;;;;;
2022/09/26 10:45:36;;;;;;;49.88;47.47;;;;;;;24.68;48.76;100552.31;4927911;29;20444;-85
2022/09/26 10:48:30;;;;;;;48.58;46.08;;;;;;;26.76;46.29;100543.78;4918022;29;20059;-89
2022/09/26 10:57:25;;;;;;;58.63;54.42;;;;;;;27.00;42.10;100526.19;4830122;29;20062;-86
2022/09/26 10:59:54;;;;;;;48.08;45.25;;;;;;;26.81;42.34;100519.13;4898967;29;20053;-85
2022/09/26 11:02:50;;;;;;;50.85;47.95;;;;;;;25.97;44.35;100520.19;4936565;29;20059;-85
2022/09/26 11:32:54;;;;;;;;;;;;;;;;;;;;;
2022/09/26 13:13:11;;;;;;;42.35;39.72;;;;;;;24.15;47.20;100410.94;4849920;29;20049;-88
2022/09/26 13:15:55;;;;;;;39.92;37.53;;;;;;;24.36;47.06;100414.81;4859356;29;20049;-89
2022/09/26 13:18:58;;;;;;;39.03;36.55;;;;;;;24.22;47.90;100409.41;4853738;29;20167;-87
2022/09/26 13:28:25;;;;;;;37.67;35.28;;;;;;;24.60;48.40;100394.75;4911020;29;20107;-86
2022/09/26 13:31:13;;;;;;;40.05;37.10;;;;;;;24.37;46.51;100385.75;4989991;28;20050;-84
2022/09/26 13:33:53;;;;;;;40.40;37.90;;;;;;;24.33;48.25;100374.72;4987546;28;20165;-88
2022/09/26 13:36:24;;;;;;;40.20;37.63;;;;;;;24.60;50.14;100378.47;4999084;28;20100;-88
2022/09/26 13:39:07;;;;;;;40.43;37.83;;;;;;;24.76;46.08;100382.44;4996834;28;20495;-86
2022/09/26 13:42:00;;;;;;;41.22;37.47;;;;;;;24.77;47.78;100378.59;4981097;28;20051;-85
2022/09/26 13:44:45;;;;;;;39.35;36.53;;;;;;;24.22;48.77;100379.56;4982642;28;20059;-85
2022/09/26 13:47:21;;;;;;;39.17;36.65;;;;;;;24.46;55.41;100375.81;4987063;28;20471;-86
2022/09/26 13:50:15;;;;;;;48.50;45.28;;;;;;;24.65;60.00;100384.56;4981388;28;20082;-86
2022/09/26 13:53:06;;;;;;;44.30;41.58;;;;;;;24.85;59.86;100386.00;5006773;28;20146;-85
2022/09/26 13:55:37;;;;;;;41.08;38.47;;;;;;;24.83;76.59;100382.78;4983499;28;20142;-85
2022/09/26 13:58:25;;;;;;;39.75;37.15;;;;;;;24.79;80.51;100381.81;4994535;28;20049;-86
2022/09/26 14:01:27;;;;;;;40.58;37.90;;;;;;;24.70;84.38;100385.59;5000569;28;20085;-84
2022/09/26 14:04:20;;;;;;;39.03;36.28;;;;;;;24.37;79.42;100359.44;4982305;28;20051;-88
2022/09/26 14:10:36;;;;;;;39.03;36.60;;;;;;;24.11;100.00;100366.53;4999974;28;20452;-89
2022/09/26 14:51:47;;;;;;;39.38;36.42;;;;;;;23.70;100.00;100334.88;4890036;29;20061;-84
2022/09/26 14:54:42;;;;;;;39.53;35.90;;;;;;;23.68;100.00;100345.16;4899682;29;20055;-88
2022/09/26 14:57:32;;;;;;;47.60;42.67;;;;;;;23.80;100.00;100329.22;4917383;29;20062;-83
2022/09/26 15:01:01;;;;;;;42.53;38.13;;;;;;;23.70;100.00;100332.94;4918494;29;20055;-88
2022/09/26 15:04:17;;;;;;;40.88;37.88;;;;;;;23.18;100.00;100326.91;4813138;29;20066;-85
2022/09/26 15:14:08;;;;;;;41.80;38.83;;;;;;;23.51;100.00;100313.25;4901166;29;20049;-86
2022/09/26 15:36:26;;;;;;;;;;;;;;;;;;;;;
2022/09/26 15:39:12;;;;;;;;;;;;;;;;;;;;;
2022/09/26 15:45:22;;;;;;;40.50;36.92;;;;;;;22.48;100.00;100308.03;4931200;28;20534;-89
2022/09/26 15:48:18;;;;;;;41.45;37.83;;;;;;;22.26;100.00;100314.88;4994895;28;20058;-88
2022/09/26 15:51:13;;;;;;;38.00;34.45;;;;;;;22.13;100.00;100299.34;4993656;28;20381;-84
2022/09/26 15:54:11;;;;;;;38.38;35.78;;;;;;;21.66;100.00;100303.78;4980824;28;20055;-87
2022/09/26 16:00:12;;;;;;;;;;;;;;;;;;;;;
2022/09/26 16:05:38;;;;;;;37.75;34.72;;;;;;;21.06;100.00;100306.88;4968731;28;20054;-87
2022/09/26 16:08:47;;;;;;;39.17;34.28;;;;;;;21.16;100.00;100304.06;5004620;28;20054;-84
2022/09/26 16:11:25;;;;;;;39.40;35.63;;;;;;;21.00;100.00;100294.50;5000267;28;20565;-87
2022/09/26 16:13:55;;;;;;;52.50;38.35;;;;;;;20.84;100.00;100301.94;4997702;28;20090;-86
2022/09/26 16:16:39;;;;;;;46.53;37.90;;;;;;;20.72;100.00;100299.59;4995016;28;20046;-85
2022/09/26 16:19:48;;;;;;;41.65;37.63;;;;;;;20.52;100.00;100307.91;4998759;28;20050;-87
2022/09/26 16:22:51;;;;;;;42.03;39.00;;;;;;;20.16;100.00;100308.09;4952544;28;20046;-87
2022/09/26 16:25:33;;;;;;;;;;;;;;;20.32;100.00;100303.41;4957619;28;20066;-89
2022/09/26 16:28:53;;;;;;;;;;;;;;;;;;;;;
2022/09/26 16:31:50;;;;;;;42.03;38.95;;;;;;;20.06;100.00;100305.47;4997048;28;20050;-87
2022/09/26 16:34:32;;;;;;;42.90;39.25;;;;;;;20.17;100.00;100307.00;4909977;29;20053;-86
2022/09/26 16:44:25;;;;;;;51.05;47.50;;;;;;;19.51;100.00;100310.00;4840888;29;20049;-90
2022/09/26 16:47:17;;;;;;;52.50;47.63;;;;;;;19.41;100.00;100321.63;4840353;29;20050;-89
2022/09/26 17:08:29;;;;;;;;;;;;;;;;;;;;;
2022/09/26 17:21:40;;;;;;;51.67;47.20;;;;;;;18.02;100.00;100322.69;4835716;29;20054;-88
2022/09/26 17:28:28;;;;;;;54.55;50.22;;;;;;;18.11;100.00;100320.31;4829687;29;20053;-90
2022/09/26 17:51:07;;;;;;;80.90;69.35;;;;;;;17.65;100.00;100341.63;4874956;29;20053;-87
2022/09/26 17:53:47;;;;;;;;;;;;;;;;;;;;;
2022/09/26 17:59:50;;;;;;;;;;;;;;;;;;;;;
2022/09/26 18:06:02;;;;;;;56.78;51.45;;;;;;;17.04;100.00;100323.28;4873409;29;20090;-88
2022/09/26 18:22:28;;;;;;;;;;;;;;;;;;;;;
2022/09/26 18:28:24;;;;;;;64.68;58.40;;;;;;;17.10;100.00;100324.94;4920044;29;20135;-87
2022/09/26 18:31:28;;;;;;;62.67;56.25;;;;;;;17.09;100.00;100313.38;4943743;29;20051;-89
2022/09/26 18:40:58;;;;;;;;;;;;;;;;;;;;;
2022/09/26 20:37:26;;;;;;;81.85;69.18;;;;;;;16.16;100.00;100219.91;4820985;29;20043;-87
2022/09/26 21:17:30;;;;;;;65.63;60.00;;;;;;;16.11;100.00;100198.41;4692989;30;20046;-90
2022/09/26 23:21:11;;;;;;;272.48;143.75;;;;;;;15.72;100.00;100114.78;5012890;28;20046;-90
2022/09/26 23:33:27;;;;;;;127.57;104.82;;;;;;;15.83;100.00;100113.03;4903483;29;20134;-89
2022/09/26 23:42:37;;;;;;;125.95;106.80;;;;;;;15.44;100.00;100119.31;4910808;29;20051;-89
2022/09/26 23:48:46;;;;;;;154.60;124.22;;;;;;;15.67;100.00;100107.50;4861249;29;20132;-89
2022/09/26 23:51:33;;;;;;;498.88;290.63;;;;;;;15.74;100.00;100108.13;4930237;29;20405;-89
2022/09/26 23:54:33;;;;;;;258.92;158.07;;;;;;;15.69;100.00;100110.75;4913036;29;20056;-88
